createdAt,value
2023-01-19T00:02:13.208Z,19.70
2023-01-19T00:07:15.541Z,31.30
2023-01-19T00:12:17.393Z,24.67
2023-01-19T00:17:19.308Z,24.67
2023-01-19T00:22:21.302Z,21.97
2023-01-19T00:27:23.215Z,22.42
2023-01-19T00:32:25.173Z,25.77
2023-01-19T00:37:27.058Z,23.27
2023-01-19T00:42:28.962Z,20.47
2023-01-19T00:47:30.850Z,19.07
2023-01-19T00:52:32.781Z,22.43
2023-01-19T00:57:34.683Z,18.67
2023-01-19T01:02:36.786Z,19.47
2023-01-19T01:07:38.835Z,23.60
2023-01-19T01:12:40.888Z,23.60
2023-01-19T01:17:57.089Z,23.15
2023-01-19T01:22:59.257Z,22.90
2023-01-19T01:28:01.452Z,23.42
2023-01-19T01:33:03.560Z,22.73
2023-01-19T01:38:05.599Z,25.45
2023-01-19T01:43:14.580Z,20.80
2023-01-19T01:48:29.224Z,23.02
2023-01-19T01:53:31.399Z,24.05
2023-01-19T01:58:33.236Z,23.95
2023-01-19T02:03:35.088Z,25.50
2023-01-19T02:08:44.141Z,17.70
2023-01-19T02:13:46.047Z,19.83
2023-01-19T02:18:47.952Z,26.20
2023-01-19T02:23:56.611Z,25.87
2023-01-19T02:28:59.737Z,23.83
2023-01-19T02:34:01.976Z,20.23
2023-01-19T02:39:03.972Z,19.77
2023-01-19T02:44:07.007Z,21.60
2023-01-19T02:49:08.949Z,21.17
2023-01-19T02:54:32.585Z,23.70
2023-01-19T03:04:59.377Z,21.67
2023-01-19T03:10:41.427Z,21.33
2023-01-19T03:15:58.720Z,22.33
2023-01-19T03:21:02.229Z,22.45
2023-01-19T03:26:04.295Z,19.75
2023-01-19T03:31:12.610Z,23.55
2023-01-19T03:36:26.780Z,21.55
2023-01-19T03:41:28.788Z,23.40
2023-01-19T03:46:30.741Z,18.83
2023-01-19T03:51:36.247Z,22.40
2023-01-19T03:56:38.135Z,20.95
2023-01-19T04:01:40.068Z,19.27
2023-01-19T04:06:42.818Z,20.50
2023-01-19T04:16:47.490Z,17.05
2023-01-19T04:21:49.601Z,16.65
2023-01-19T04:26:52.115Z,19.92
2023-01-19T04:31:53.999Z,15.85
2023-01-19T04:36:55.857Z,15.83
2023-01-19T04:41:57.594Z,14.87
2023-01-19T04:46:59.346Z,15.43
2023-01-19T04:52:01.127Z,18.73
2023-01-19T04:57:02.891Z,14.60
2023-01-19T05:02:04.668Z,21.40
2023-01-19T05:07:06.434Z,19.43
2023-01-19T05:12:08.209Z,17.97
2023-01-19T05:17:10.200Z,19.43
2023-01-19T05:22:11.956Z,16.43
2023-01-19T05:27:13.723Z,22.15
2023-01-19T05:32:15.471Z,21.55
2023-01-19T05:37:17.230Z,19.37
2023-01-19T05:42:20.466Z,25.20
2023-01-19T05:47:22.200Z,20.87
2023-01-19T05:52:23.944Z,24.98
2023-01-19T05:57:25.663Z,21.58
2023-01-19T06:02:27.383Z,25.63
2023-01-19T06:07:29.325Z,17.60
2023-01-19T06:12:31.089Z,23.37
2023-01-19T06:17:33.310Z,20.13
2023-01-19T06:22:35.135Z,22.10
2023-01-19T06:27:36.855Z,25.13
2023-01-19T06:32:38.617Z,23.38
2023-01-19T06:37:40.764Z,24.95
2023-01-19T06:42:42.531Z,24.83
2023-01-19T06:47:44.895Z,22.50
2023-01-19T06:52:49.285Z,24.67
2023-01-19T06:57:58.241Z,25.30
2023-01-19T07:03:00.504Z,27.02
2023-01-19T07:08:02.574Z,28.08
2023-01-19T07:13:04.616Z,30.43
2023-01-19T07:18:06.691Z,27.23
2023-01-19T07:23:09.244Z,29.27
2023-01-19T07:28:11.015Z,28.00
2023-01-19T07:33:12.889Z,17.83
2023-01-19T07:38:15.183Z,27.37
2023-01-19T07:43:16.937Z,28.67
2023-01-19T07:48:18.709Z,21.90
2023-01-19T07:53:20.483Z,26.40
2023-01-19T07:58:25.507Z,19.17
2023-01-19T08:03:27.256Z,32.03
2023-01-19T08:08:33.001Z,27.20
2023-01-19T08:13:34.754Z,27.08
2023-01-19T08:18:36.868Z,25.42
2023-01-19T08:23:38.705Z,28.80
2023-01-19T08:28:40.476Z,26.42
2023-01-19T08:33:42.231Z,27.98
2023-01-19T08:38:47.448Z,28.08
2023-01-19T08:43:49.475Z,25.35
2023-01-19T08:48:51.207Z,24.17
2023-01-19T08:53:52.953Z,27.33
2023-01-19T08:59:08.199Z,23.58
2023-01-19T09:04:11.196Z,27.40
2023-01-19T09:09:12.933Z,29.45
2023-01-19T09:14:14.692Z,26.67
2023-01-19T09:19:16.475Z,30.48
2023-01-19T09:24:18.212Z,31.60
2023-01-19T09:29:20.064Z,28.75
2023-01-19T09:34:21.944Z,29.70
2023-01-19T09:39:23.661Z,29.23
2023-01-19T09:44:28.855Z,24.07
2023-01-19T09:49:36.428Z,30.00
2023-01-19T09:54:49.849Z,29.52
2023-01-19T09:59:51.736Z,27.08
2023-01-19T10:05:14.220Z,30.07
2023-01-19T10:10:22.712Z,30.80
2023-01-19T10:15:29.781Z,32.75
2023-01-19T10:20:35.370Z,28.10
2023-01-19T10:25:37.154Z,31.45
2023-01-19T10:30:38.979Z,27.63
2023-01-19T10:35:40.831Z,31.00
2023-01-19T10:40:53.571Z,31.73
2023-01-19T10:45:55.441Z,31.02
2023-01-19T10:51:03.839Z,35.97
2023-01-19T10:56:21.017Z,31.63
2023-01-19T11:01:24.917Z,29.33
2023-01-19T11:06:28.456Z,31.15
2023-01-19T11:11:31.869Z,36.78
2023-01-19T11:16:33.655Z,36.65
2023-01-19T11:21:35.419Z,40.67
2023-01-19T11:26:55.103Z,39.17
2023-01-19T11:32:09.197Z,43.55
2023-01-19T11:37:16.664Z,47.78
2023-01-19T11:42:18.791Z,40.22
2023-01-19T11:47:33.789Z,40.70
2023-01-19T11:52:53.988Z,45.05
2023-01-19T11:57:55.705Z,45.53
2023-01-19T12:03:08.145Z,46.50
2023-01-19T12:08:14.703Z,47.53
2023-01-19T12:13:24.583Z,48.83
2023-01-19T12:18:30.072Z,47.20
2023-01-19T12:24:07.779Z,44.15
2023-01-19T12:29:14.323Z,47.97
2023-01-19T12:34:25.296Z,46.33
2023-01-19T12:39:27.075Z,45.97
2023-01-19T12:44:29.367Z,46.77
2023-01-19T12:49:37.987Z,46.13
2023-01-19T12:54:56.928Z,48.40
2023-01-19T13:00:27.895Z,47.05
2023-01-19T13:05:33.130Z,49.08
2023-01-19T13:10:53.840Z,44.10
2023-01-19T13:15:56.178Z,44.25
2023-01-19T13:21:31.182Z,46.80
2023-01-19T13:26:40.676Z,46.78
2023-01-19T13:31:43.364Z,50.75
2023-01-19T13:41:47.483Z,45.88
2023-01-19T13:46:49.287Z,52.50
2023-01-19T13:52:06.287Z,54.47
2023-01-19T13:57:23.338Z,54.40
2023-01-19T14:02:25.296Z,54.72
2023-01-19T14:07:27.298Z,58.85
2023-01-19T14:12:29.118Z,42.10
2023-01-19T14:17:31.085Z,56.47
2023-01-19T14:22:42.997Z,41.73
2023-01-19T14:27:44.915Z,49.63
2023-01-19T14:32:46.685Z,60.40
2023-01-19T14:37:49.348Z,49.80
2023-01-19T14:42:58.360Z,60.60
2023-01-19T14:48:02.490Z,48.42
2023-01-19T14:53:14.889Z,51.97
2023-01-19T14:58:18.583Z,47.37
2023-01-19T15:03:20.380Z,48.65
2023-01-19T15:08:32.697Z,40.67
2023-01-19T15:13:34.627Z,40.53
2023-01-19T15:18:36.567Z,42.27
2023-01-19T15:23:38.392Z,39.70
2023-01-19T15:28:40.689Z,28.90
2023-01-19T15:33:42.741Z,42.38
2023-01-19T15:38:44.949Z,42.70
2023-01-19T15:43:46.871Z,33.20
2023-01-19T15:48:51.359Z,33.73
2023-01-19T15:53:53.485Z,30.40
2023-01-19T15:58:55.642Z,23.35
2023-01-19T16:04:01.811Z,34.63
2023-01-19T16:09:04.084Z,30.08
2023-01-19T16:14:05.935Z,21.37
2023-01-19T16:19:07.709Z,30.33
2023-01-19T16:24:09.579Z,28.80
2023-01-19T16:29:11.423Z,26.57
2023-01-19T16:34:13.377Z,21.57
2023-01-19T16:39:15.515Z,20.53
2023-01-19T16:44:17.437Z,30.10
2023-01-19T16:49:21.527Z,25.37
2023-01-19T16:54:24.131Z,28.80
2023-01-19T16:59:26.081Z,24.58
2023-01-19T17:04:28.128Z,27.10
2023-01-19T17:09:29.977Z,25.93
2023-01-19T17:14:31.859Z,27.97
2023-01-19T17:19:33.681Z,27.70
2023-01-19T17:24:35.524Z,28.37
2023-01-19T17:29:37.388Z,25.77
2023-01-19T17:34:39.364Z,28.43
2023-01-19T17:39:41.440Z,26.98
2023-01-19T17:44:43.288Z,19.00
2023-01-19T17:49:45.115Z,25.90
2023-01-19T17:54:47.024Z,21.73
2023-01-19T17:59:48.927Z,32.47
2023-01-19T18:04:51.717Z,31.53
2023-01-19T18:09:53.674Z,38.50
2023-01-19T18:14:55.499Z,35.67
2023-01-19T18:19:58.165Z,33.47
2023-01-19T18:30:01.695Z,39.00
2023-01-19T18:35:05.612Z,40.17
2023-01-19T18:40:08.116Z,39.53
2023-01-19T18:45:10.580Z,45.28
2023-01-19T18:50:12.799Z,54.22
2023-01-19T18:55:15.013Z,51.65
2023-01-19T19:00:17.981Z,58.55
2023-01-19T19:05:20.012Z,62.63
2023-01-19T19:10:21.975Z,58.92
2023-01-19T19:15:23.998Z,65.63
2023-01-19T19:20:26.145Z,64.25
2023-01-19T19:25:28.016Z,66.32
2023-01-19T19:30:29.913Z,67.80
2023-01-19T19:35:31.807Z,68.30
2023-01-19T19:40:33.790Z,46.43
2023-01-19T19:45:35.774Z,70.73
2023-01-19T19:50:37.876Z,68.87
2023-01-19T19:55:39.827Z,53.40
2023-01-19T20:00:41.717Z,62.97
2023-01-19T20:05:43.644Z,54.93
2023-01-19T20:10:45.521Z,57.90
2023-01-19T20:15:47.538Z,61.80
2023-01-19T20:20:49.360Z,60.90
2023-01-19T20:25:51.344Z,53.07
2023-01-19T20:30:53.331Z,54.23
2023-01-19T20:35:55.273Z,35.67
2023-01-19T20:40:57.209Z,44.93
2023-01-19T20:45:59.219Z,47.23
2023-01-19T20:51:02.705Z,34.78
2023-01-19T20:56:10.309Z,50.20
2023-01-19T21:01:19.828Z,51.15
2023-01-19T21:06:21.976Z,49.53
2023-01-19T21:11:23.954Z,50.03
2023-01-19T21:16:26.852Z,58.53
2023-01-19T21:21:31.481Z,60.23
2023-01-19T21:26:33.854Z,57.13
2023-01-19T21:31:35.733Z,65.57
2023-01-19T21:36:37.669Z,62.20
2023-01-19T21:41:39.560Z,66.03
2023-01-19T21:46:41.420Z,57.40
2023-01-19T21:51:43.373Z,64.07
2023-01-19T21:56:45.303Z,61.53
2023-01-19T22:01:47.225Z,63.47
2023-01-19T22:06:49.353Z,40.35
2023-01-19T22:11:51.295Z,47.00
2023-01-19T22:16:53.340Z,63.07
2023-01-19T22:21:55.283Z,63.03
2023-01-19T22:26:57.227Z,62.23
2023-01-19T22:31:59.063Z,63.53
2023-01-19T22:37:01.064Z,58.53
2023-01-19T22:42:03.029Z,37.80
2023-01-19T22:47:05.004Z,58.13
2023-01-19T22:52:06.906Z,52.23
2023-01-19T22:57:08.848Z,55.93
2023-01-19T23:02:10.768Z,61.27
2023-01-19T23:07:12.687Z,63.43
2023-01-19T23:12:14.539Z,53.93
2023-01-19T23:17:16.361Z,51.30
2023-01-19T23:22:18.270Z,54.00
2023-01-19T23:27:20.220Z,56.73
2023-01-19T23:32:22.163Z,52.33
2023-01-19T23:37:24.023Z,57.40
2023-01-19T23:42:25.837Z,54.97
2023-01-19T23:47:27.717Z,54.27
2023-01-19T23:52:29.606Z,54.73
2023-01-19T23:57:31.454Z,52.90
